sensor_id;sensor_type;location;lat;lon;timestamp;temperature;humidity
34574;DHT22;20809;49.594;8.734;2022-09-09T00:01:49;14.30;99.90
34574;DHT22;20809;49.594;8.734;2022-09-09T00:05:01;14.30;99.90
34574;DHT22;20809;49.594;8.734;2022-09-09T00:08:15;14.30;99.90
34574;DHT22;20809;49.594;8.734;2022-09-09T00:11:31;14.40;99.90
34574;DHT22;20809;49.594;8.734;2022-09-09T00:17:38;14.40;99.90
34574;DHT22;20809;49.594;8.734;2022-09-09T00:23:47;14.30;99.90
34574;DHT22;20809;49.594;8.734;2022-09-09T00:26:53;14.20;99.90
34574;DHT22;20809;49.594;8.734;2022-09-09T00:30:13;14.20;99.90
34574;DHT22;20809;49.594;8.734;2022-09-09T00:33:17;14.20;99.90
34574;DHT22;20809;49.594;8.734;2022-09-09T00:36:22;14.30;99.90
34574;DHT22;20809;49.594;8.734;2022-09-09T00:39:32;14.40;99.90
34574;DHT22;20809;49.594;8.734;2022-09-09T00:42:41;14.40;99.90
34574;DHT22;20809;49.594;8.734;2022-09-09T00:49:20;14.50;99.90
34574;DHT22;20809;49.594;8.734;2022-09-09T00:59:24;14.60;99.90
34574;DHT22;20809;49.594;8.734;2022-09-09T01:02:57;14.60;99.90
34574;DHT22;20809;49.594;8.734;2022-09-09T01:12:52;14.50;99.90
34574;DHT22;20809;49.594;8.734;2022-09-09T01:15:55;14.60;99.90
34574;DHT22;20809;49.594;8.734;2022-09-09T01:18:58;14.60;99.90
34574;DHT22;20809;49.594;8.734;2022-09-09T01:22:24;14.60;99.90
34574;DHT22;20809;49.594;8.734;2022-09-09T01:28:31;14.50;99.90
34574;DHT22;20809;49.594;8.734;2022-09-09T01:31:42;14.50;99.90
34574;DHT22;20809;49.594;8.734;2022-09-09T01:34:43;14.50;99.90
34574;DHT22;20809;49.594;8.734;2022-09-09T01:37:43;14.50;99.90
34574;DHT22;20809;49.594;8.734;2022-09-09T01:40:44;14.40;99.90
34574;DHT22;20809;49.594;8.734;2022-09-09T01:43:45;14.40;99.90
34574;DHT22;20809;49.594;8.734;2022-09-09T01:46:46;14.40;99.90
34574;DHT22;20809;49.594;8.734;2022-09-09T01:49:47;14.30;99.90
34574;DHT22;20809;49.594;8.734;2022-09-09T01:52:52;14.20;99.90
34574;DHT22;20809;49.594;8.734;2022-09-09T01:56:07;14.20;99.90
34574;DHT22;20809;49.594;8.734;2022-09-09T02:03:08;14.20;99.90
34574;DHT22;20809;49.594;8.734;2022-09-09T02:09:26;14.40;99.90
34574;DHT22;20809;49.594;8.734;2022-09-09T02:12:26;14.50;99.90
34574;DHT22;20809;49.594;8.734;2022-09-09T02:15:34;14.60;99.90
34574;DHT22;20809;49.594;8.734;2022-09-09T02:18:42;14.70;99.90
34574;DHT22;20809;49.594;8.734;2022-09-09T02:21:45;14.70;99.90
34574;DHT22;20809;49.594;8.734;2022-09-09T02:24:47;14.90;99.90
34574;DHT22;20809;49.594;8.734;2022-09-09T02:27:50;15.00;99.90
34574;DHT22;20809;49.594;8.734;2022-09-09T02:30:54;15.00;99.90
34574;DHT22;20809;49.594;8.734;2022-09-09T02:33:58;15.10;99.90
34574;DHT22;20809;49.594;8.734;2022-09-09T02:37:00;15.10;99.90
34574;DHT22;20809;49.594;8.734;2022-09-09T02:40:08;15.10;99.90
34574;DHT22;20809;49.594;8.734;2022-09-09T02:43:10;15.20;99.90
34574;DHT22;20809;49.594;8.734;2022-09-09T02:46:26;15.30;99.90
34574;DHT22;20809;49.594;8.734;2022-09-09T02:49:46;15.40;99.90
34574;DHT22;20809;49.594;8.734;2022-09-09T02:56:09;15.60;99.90
34574;DHT22;20809;49.594;8.734;2022-09-09T02:59:14;15.70;99.90
34574;DHT22;20809;49.594;8.734;2022-09-09T03:02:14;15.70;99.90
34574;DHT22;20809;49.594;8.734;2022-09-09T03:05:15;15.80;99.90
34574;DHT22;20809;49.594;8.734;2022-09-09T03:08:16;15.80;99.90
34574;DHT22;20809;49.594;8.734;2022-09-09T03:11:17;15.80;99.90
34574;DHT22;20809;49.594;8.734;2022-09-09T03:14:18;15.80;99.90
34574;DHT22;20809;49.594;8.734;2022-09-09T03:17:21;15.90;99.90
34574;DHT22;20809;49.594;8.734;2022-09-09T03:20:23;15.90;99.90
34574;DHT22;20809;49.594;8.734;2022-09-09T03:23:23;15.90;99.90
34574;DHT22;20809;49.594;8.734;2022-09-09T03:26:24;15.90;99.90
34574;DHT22;20809;49.594;8.734;2022-09-09T03:29:25;15.80;99.90
34574;DHT22;20809;49.594;8.734;2022-09-09T03:32:25;15.80;99.90
34574;DHT22;20809;49.594;8.734;2022-09-09T03:35:26;15.80;99.90
34574;DHT22;20809;49.594;8.734;2022-09-09T03:38:27;15.70;99.90
34574;DHT22;20809;49.594;8.734;2022-09-09T03:41:29;15.50;99.90
34574;DHT22;20809;49.594;8.734;2022-09-09T03:44:30;15.50;99.90
34574;DHT22;20809;49.594;8.734;2022-09-09T03:47:31;15.40;99.90
34574;DHT22;20809;49.594;8.734;2022-09-09T03:50:32;15.30;99.90
34574;DHT22;20809;49.594;8.734;2022-09-09T03:53:33;15.30;99.90
34574;DHT22;20809;49.594;8.734;2022-09-09T03:56:34;15.20;99.90
34574;DHT22;20809;49.594;8.734;2022-09-09T03:59:36;15.20;99.90
34574;DHT22;20809;49.594;8.734;2022-09-09T04:02:36;15.10;99.90
34574;DHT22;20809;49.594;8.734;2022-09-09T04:05:39;15.10;99.90
34574;DHT22;20809;49.594;8.734;2022-09-09T04:08:41;15.00;99.90
34574;DHT22;20809;49.594;8.734;2022-09-09T04:11:42;15.00;99.90
34574;DHT22;20809;49.594;8.734;2022-09-09T04:14:42;15.00;99.90
34574;DHT22;20809;49.594;8.734;2022-09-09T04:17:43;15.00;99.90
34574;DHT22;20809;49.594;8.734;2022-09-09T04:20:46;15.00;99.90
34574;DHT22;20809;49.594;8.734;2022-09-09T04:23:48;14.90;99.90
34574;DHT22;20809;49.594;8.734;2022-09-09T04:26:48;14.90;99.90
34574;DHT22;20809;49.594;8.734;2022-09-09T04:29:49;14.90;99.90
34574;DHT22;20809;49.594;8.734;2022-09-09T04:32:50;15.00;99.90
34574;DHT22;20809;49.594;8.734;2022-09-09T04:35:50;15.00;99.90
34574;DHT22;20809;49.594;8.734;2022-09-09T04:38:54;15.10;99.90
34574;DHT22;20809;49.594;8.734;2022-09-09T04:41:54;15.10;99.90
34574;DHT22;20809;49.594;8.734;2022-09-09T04:44:56;15.10;99.90
34574;DHT22;20809;49.594;8.734;2022-09-09T04:47:57;15.10;99.90
34574;DHT22;20809;49.594;8.734;2022-09-09T04:54:00;15.10;99.90
34574;DHT22;20809;49.594;8.734;2022-09-09T04:57:00;15.10;99.90
34574;DHT22;20809;49.594;8.734;2022-09-09T05:00:03;15.10;99.90
34574;DHT22;20809;49.594;8.734;2022-09-09T05:03:05;15.10;99.90
34574;DHT22;20809;49.594;8.734;2022-09-09T05:06:11;15.20;99.90
34574;DHT22;20809;49.594;8.734;2022-09-09T05:09:13;15.20;99.90
34574;DHT22;20809;49.594;8.734;2022-09-09T05:12:13;15.30;99.90
34574;DHT22;20809;49.594;8.734;2022-09-09T05:15:14;15.40;99.90
34574;DHT22;20809;49.594;8.734;2022-09-09T05:18:15;15.50;99.90
34574;DHT22;20809;49.594;8.734;2022-09-09T05:21:19;15.50;99.90
34574;DHT22;20809;49.594;8.734;2022-09-09T05:24:20;15.60;99.90
34574;DHT22;20809;49.594;8.734;2022-09-09T05:27:23;15.70;99.90
34574;DHT22;20809;49.594;8.734;2022-09-09T05:30:24;15.80;99.90
34574;DHT22;20809;49.594;8.734;2022-09-09T05:33:27;15.80;99.90
34574;DHT22;20809;49.594;8.734;2022-09-09T05:36:28;15.90;99.90
34574;DHT22;20809;49.594;8.734;2022-09-09T05:39:28;16.00;99.90
34574;DHT22;20809;49.594;8.734;2022-09-09T05:42:30;16.00;99.90
34574;DHT22;20809;49.594;8.734;2022-09-09T05:45:31;16.00;99.90
34574;DHT22;20809;49.594;8.734;2022-09-09T05:48:34;16.10;99.90
34574;DHT22;20809;49.594;8.734;2022-09-09T05:51:35;16.10;99.90
34574;DHT22;20809;49.594;8.734;2022-09-09T05:54:35;16.30;99.90
34574;DHT22;20809;49.594;8.734;2022-09-09T05:57:37;16.40;99.90
34574;DHT22;20809;49.594;8.734;2022-09-09T06:00:39;16.50;99.90
34574;DHT22;20809;49.594;8.734;2022-09-09T06:03:42;16.60;99.90
34574;DHT22;20809;49.594;8.734;2022-09-09T06:06:43;16.60;99.90
34574;DHT22;20809;49.594;8.734;2022-09-09T06:09:44;16.60;99.90
34574;DHT22;20809;49.594;8.734;2022-09-09T06:12:44;16.60;99.90
34574;DHT22;20809;49.594;8.734;2022-09-09T06:15:52;16.70;99.90
34574;DHT22;20809;49.594;8.734;2022-09-09T06:18:54;16.80;99.90
34574;DHT22;20809;49.594;8.734;2022-09-09T06:21:55;16.90;99.90
34574;DHT22;20809;49.594;8.734;2022-09-09T06:24:55;17.00;99.90
34574;DHT22;20809;49.594;8.734;2022-09-09T06:27:56;17.10;99.90
34574;DHT22;20809;49.594;8.734;2022-09-09T06:30:58;17.20;99.90
34574;DHT22;20809;49.594;8.734;2022-09-09T06:33:59;17.20;99.90
34574;DHT22;20809;49.594;8.734;2022-09-09T06:37:01;17.20;99.90
34574;DHT22;20809;49.594;8.734;2022-09-09T06:40:02;17.30;99.90
34574;DHT22;20809;49.594;8.734;2022-09-09T06:43:02;17.80;99.90
34574;DHT22;20809;49.594;8.734;2022-09-09T06:46:14;18.00;99.90
34574;DHT22;20809;49.594;8.734;2022-09-09T06:49:15;18.30;99.90
34574;DHT22;20809;49.594;8.734;2022-09-09T06:52:16;19.40;99.90
34574;DHT22;20809;49.594;8.734;2022-09-09T06:55:18;20.60;99.90
34574;DHT22;20809;49.594;8.734;2022-09-09T06:58:19;20.70;99.90
34574;DHT22;20809;49.594;8.734;2022-09-09T07:01:21;21.50;99.90
34574;DHT22;20809;49.594;8.734;2022-09-09T07:04:23;22.20;99.90
34574;DHT22;20809;49.594;8.734;2022-09-09T07:07:24;22.60;99.90
34574;DHT22;20809;49.594;8.734;2022-09-09T07:10:25;22.50;99.90
34574;DHT22;20809;49.594;8.734;2022-09-09T07:13:26;22.00;99.90
34574;DHT22;20809;49.594;8.734;2022-09-09T07:16:28;21.70;99.90
34574;DHT22;20809;49.594;8.734;2022-09-09T07:19:29;21.70;99.90
34574;DHT22;20809;49.594;8.734;2022-09-09T07:22:30;21.70;99.90
34574;DHT22;20809;49.594;8.734;2022-09-09T07:25:31;21.30;99.90
34574;DHT22;20809;49.594;8.734;2022-09-09T07:28:31;21.00;99.90
34574;DHT22;20809;49.594;8.734;2022-09-09T07:31:35;20.50;99.90
34574;DHT22;20809;49.594;8.734;2022-09-09T07:34:36;20.30;99.90
34574;DHT22;20809;49.594;8.734;2022-09-09T07:37:37;20.20;99.90
34574;DHT22;20809;49.594;8.734;2022-09-09T07:40:38;20.30;99.90
34574;DHT22;20809;49.594;8.734;2022-09-09T07:43:41;20.30;99.90
34574;DHT22;20809;49.594;8.734;2022-09-09T07:46:42;20.30;99.90
34574;DHT22;20809;49.594;8.734;2022-09-09T07:49:45;20.50;99.90
34574;DHT22;20809;49.594;8.734;2022-09-09T07:52:46;20.90;99.90
34574;DHT22;20809;49.594;8.734;2022-09-09T07:55:47;21.00;99.90
34574;DHT22;20809;49.594;8.734;2022-09-09T07:58:48;20.80;99.90
34574;DHT22;20809;49.594;8.734;2022-09-09T08:01:51;20.40;99.90
34574;DHT22;20809;49.594;8.734;2022-09-09T08:04:55;20.30;99.90
34574;DHT22;20809;49.594;8.734;2022-09-09T08:07:57;20.10;99.90
34574;DHT22;20809;49.594;8.734;2022-09-09T08:11:12;20.00;99.90
34574;DHT22;20809;49.594;8.734;2022-09-09T08:14:14;20.20;99.90
34574;DHT22;20809;49.594;8.734;2022-09-09T08:17:14;20.50;99.90
34574;DHT22;20809;49.594;8.734;2022-09-09T08:20:15;21.00;99.90
34574;DHT22;20809;49.594;8.734;2022-09-09T08:23:16;21.40;99.90
34574;DHT22;20809;49.594;8.734;2022-09-09T08:26:18;21.60;99.90
34574;DHT22;20809;49.594;8.734;2022-09-09T08:29:23;21.50;99.90
34574;DHT22;20809;49.594;8.734;2022-09-09T08:32:24;21.00;99.90
34574;DHT22;20809;49.594;8.734;2022-09-09T08:35:26;20.70;99.90
34574;DHT22;20809;49.594;8.734;2022-09-09T08:38:27;20.60;99.90
34574;DHT22;20809;49.594;8.734;2022-09-09T08:45:20;20.10;99.90
34574;DHT22;20809;49.594;8.734;2022-09-09T08:51:38;18.60;99.90
34574;DHT22;20809;49.594;8.734;2022-09-09T08:54:39;18.40;99.90
34574;DHT22;20809;49.594;8.734;2022-09-09T08:57:40;18.40;99.90
34574;DHT22;20809;49.594;8.734;2022-09-09T09:10:48;20.40;99.90
34574;DHT22;20809;49.594;8.734;2022-09-09T09:13:54;20.30;99.90
34574;DHT22;20809;49.594;8.734;2022-09-09T09:17:04;20.20;99.90
34574;DHT22;20809;49.594;8.734;2022-09-09T09:20:12;20.20;99.90
34574;DHT22;20809;49.594;8.734;2022-09-09T09:23:24;20.00;99.90
34574;DHT22;20809;49.594;8.734;2022-09-09T09:26:34;20.00;99.90
34574;DHT22;20809;49.594;8.734;2022-09-09T09:29:35;20.30;99.90
34574;DHT22;20809;49.594;8.734;2022-09-09T09:32:37;20.30;99.90
34574;DHT22;20809;49.594;8.734;2022-09-09T09:35:39;20.20;99.90
34574;DHT22;20809;49.594;8.734;2022-09-09T09:38:40;20.30;99.90
34574;DHT22;20809;49.594;8.734;2022-09-09T09:41:51;20.40;99.90
34574;DHT22;20809;49.594;8.734;2022-09-09T09:44:52;20.90;99.90
34574;DHT22;20809;49.594;8.734;2022-09-09T09:48:04;21.10;99.90
34574;DHT22;20809;49.594;8.734;2022-09-09T09:51:11;21.20;99.90
34574;DHT22;20809;49.594;8.734;2022-09-09T09:54:27;20.90;99.90
34574;DHT22;20809;49.594;8.734;2022-09-09T09:57:31;20.60;99.90
34574;DHT22;20809;49.594;8.734;2022-09-09T10:00:32;20.60;99.90
34574;DHT22;20809;49.594;8.734;2022-09-09T10:03:35;20.60;99.90
34574;DHT22;20809;49.594;8.734;2022-09-09T10:06:39;20.70;99.90
34574;DHT22;20809;49.594;8.734;2022-09-09T10:09:41;20.80;99.90
34574;DHT22;20809;49.594;8.734;2022-09-09T10:13:02;20.50;99.90
34574;DHT22;20809;49.594;8.734;2022-09-09T10:16:19;20.10;99.90
34574;DHT22;20809;49.594;8.734;2022-09-09T10:19:34;19.70;99.90
34574;DHT22;20809;49.594;8.734;2022-09-09T10:22:36;18.90;99.90
34574;DHT22;20809;49.594;8.734;2022-09-09T10:39:55;17.50;99.90
34574;DHT22;20809;49.594;8.734;2022-09-09T10:43:13;17.70;99.90
34574;DHT22;20809;49.594;8.734;2022-09-09T10:47:10;18.00;99.90
34574;DHT22;20809;49.594;8.734;2022-09-09T10:53:02;19.30;99.90
34574;DHT22;20809;49.594;8.734;2022-09-09T10:56:09;19.70;99.90
34574;DHT22;20809;49.594;8.734;2022-09-09T10:59:18;19.80;99.90
34574;DHT22;20809;49.594;8.734;2022-09-09T11:02:28;19.80;99.90
34574;DHT22;20809;49.594;8.734;2022-09-09T11:05:35;19.80;99.90
34574;DHT22;20809;49.594;8.734;2022-09-09T11:08:42;19.90;99.90
34574;DHT22;20809;49.594;8.734;2022-09-09T11:15:26;20.40;99.90
34574;DHT22;20809;49.594;8.734;2022-09-09T11:18:31;20.50;99.90
34574;DHT22;20809;49.594;8.734;2022-09-09T11:21:44;20.70;99.90
34574;DHT22;20809;49.594;8.734;2022-09-09T11:24:59;20.90;99.90
34574;DHT22;20809;49.594;8.734;2022-09-09T11:34:50;21.40;99.90
34574;DHT22;20809;49.594;8.734;2022-09-09T11:41:05;21.50;99.90
34574;DHT22;20809;49.594;8.734;2022-09-09T11:44:12;21.90;99.90
34574;DHT22;20809;49.594;8.734;2022-09-09T11:47:25;22.30;99.90
34574;DHT22;20809;49.594;8.734;2022-09-09T11:50:36;22.50;99.90
34574;DHT22;20809;49.594;8.734;2022-09-09T11:53:53;22.70;99.90
34574;DHT22;20809;49.594;8.734;2022-09-09T11:56:54;22.90;99.90
34574;DHT22;20809;49.594;8.734;2022-09-09T11:59:55;23.20;99.90
34574;DHT22;20809;49.594;8.734;2022-09-09T12:02:57;23.30;99.90
34574;DHT22;20809;49.594;8.734;2022-09-09T12:05:58;23.40;99.90
34574;DHT22;20809;49.594;8.734;2022-09-09T12:09:22;23.50;99.90
34574;DHT22;20809;49.594;8.734;2022-09-09T12:12:27;23.60;99.90
34574;DHT22;20809;49.594;8.734;2022-09-09T12:15:29;23.30;99.90
34574;DHT22;20809;49.594;8.734;2022-09-09T12:18:35;22.70;99.90
34574;DHT22;20809;49.594;8.734;2022-09-09T12:41:52;21.20;99.90
34574;DHT22;20809;49.594;8.734;2022-09-09T12:44:59;21.20;99.90
34574;DHT22;20809;49.594;8.734;2022-09-09T12:48:03;20.90;99.90
34574;DHT22;20809;49.594;8.734;2022-09-09T12:51:19;20.30;99.90
34574;DHT22;20809;49.594;8.734;2022-09-09T12:54:21;18.40;99.90
34574;DHT22;20809;49.594;8.734;2022-09-09T12:57:23;17.30;99.90
34574;DHT22;20809;49.594;8.734;2022-09-09T13:00:26;16.50;99.90
34574;DHT22;20809;49.594;8.734;2022-09-09T13:03:27;16.30;99.90
34574;DHT22;20809;49.594;8.734;2022-09-09T13:06:30;16.40;99.90
34574;DHT22;20809;49.594;8.734;2022-09-09T13:09:31;16.70;99.90
34574;DHT22;20809;49.594;8.734;2022-09-09T13:12:32;17.10;99.90
34574;DHT22;20809;49.594;8.734;2022-09-09T13:15:33;17.30;99.90
34574;DHT22;20809;49.594;8.734;2022-09-09T13:18:40;17.70;99.90
34574;DHT22;20809;49.594;8.734;2022-09-09T13:21:42;17.80;99.90
34574;DHT22;20809;49.594;8.734;2022-09-09T13:24:43;17.70;99.90
34574;DHT22;20809;49.594;8.734;2022-09-09T13:27:57;17.70;99.90
34574;DHT22;20809;49.594;8.734;2022-09-09T13:31:05;17.60;99.90
34574;DHT22;20809;49.594;8.734;2022-09-09T13:34:29;17.50;99.90
34574;DHT22;20809;49.594;8.734;2022-09-09T13:37:36;17.40;99.90
34574;DHT22;20809;49.594;8.734;2022-09-09T13:40:38;17.30;99.90
34574;DHT22;20809;49.594;8.734;2022-09-09T13:43:44;17.20;99.90
34574;DHT22;20809;49.594;8.734;2022-09-09T13:46:45;17.00;99.90
34574;DHT22;20809;49.594;8.734;2022-09-09T13:49:46;16.90;99.90
34574;DHT22;20809;49.594;8.734;2022-09-09T13:52:47;16.60;99.90
34574;DHT22;20809;49.594;8.734;2022-09-09T13:55:50;16.50;99.90
34574;DHT22;20809;49.594;8.734;2022-09-09T13:58:51;16.40;99.90
34574;DHT22;20809;49.594;8.734;2022-09-09T14:01:52;16.50;99.90
34574;DHT22;20809;49.594;8.734;2022-09-09T14:04:53;16.80;99.90
34574;DHT22;20809;49.594;8.734;2022-09-09T14:07:56;17.40;99.90
34574;DHT22;20809;49.594;8.734;2022-09-09T14:10:57;18.00;99.90
34574;DHT22;20809;49.594;8.734;2022-09-09T14:13:58;18.20;99.90
34574;DHT22;20809;49.594;8.734;2022-09-09T14:17:01;18.40;99.90
34574;DHT22;20809;49.594;8.734;2022-09-09T14:20:06;18.60;99.90
34574;DHT22;20809;49.594;8.734;2022-09-09T14:23:11;18.90;99.90
34574;DHT22;20809;49.594;8.734;2022-09-09T14:26:12;19.20;99.90
34574;DHT22;20809;49.594;8.734;2022-09-09T14:29:13;19.40;99.90
34574;DHT22;20809;49.594;8.734;2022-09-09T14:32:14;19.50;99.90
34574;DHT22;20809;49.594;8.734;2022-09-09T14:35:15;19.40;99.90
34574;DHT22;20809;49.594;8.734;2022-09-09T14:38:17;19.30;99.90
34574;DHT22;20809;49.594;8.734;2022-09-09T14:41:19;19.50;99.90
34574;DHT22;20809;49.594;8.734;2022-09-09T14:44:20;19.80;99.90
34574;DHT22;20809;49.594;8.734;2022-09-09T14:47:22;20.10;99.90
34574;DHT22;20809;49.594;8.734;2022-09-09T14:50:23;20.20;99.90
34574;DHT22;20809;49.594;8.734;2022-09-09T14:53:24;20.30;99.90
34574;DHT22;20809;49.594;8.734;2022-09-09T14:56:27;20.40;99.90
34574;DHT22;20809;49.594;8.734;2022-09-09T14:59:29;20.50;99.90
34574;DHT22;20809;49.594;8.734;2022-09-09T15:02:30;20.70;99.90
34574;DHT22;20809;49.594;8.734;2022-09-09T15:05:31;20.50;99.90
34574;DHT22;20809;49.594;8.734;2022-09-09T15:08:32;20.50;99.90
34574;DHT22;20809;49.594;8.734;2022-09-09T15:11:35;20.40;99.90
34574;DHT22;20809;49.594;8.734;2022-09-09T15:14:39;20.10;99.90
34574;DHT22;20809;49.594;8.734;2022-09-09T15:17:40;19.80;99.90
34574;DHT22;20809;49.594;8.734;2022-09-09T15:20:44;19.60;99.90
34574;DHT22;20809;49.594;8.734;2022-09-09T15:23:47;19.30;99.90
34574;DHT22;20809;49.594;8.734;2022-09-09T15:26:48;19.20;99.90
34574;DHT22;20809;49.594;8.734;2022-09-09T15:29:49;18.90;99.90
34574;DHT22;20809;49.594;8.734;2022-09-09T15:32:50;18.60;99.90
34574;DHT22;20809;49.594;8.734;2022-09-09T15:35:53;18.40;99.90
34574;DHT22;20809;49.594;8.734;2022-09-09T15:38:54;18.30;99.90
34574;DHT22;20809;49.594;8.734;2022-09-09T15:41:55;18.10;99.90
34574;DHT22;20809;49.594;8.734;2022-09-09T15:44:55;17.90;99.90
34574;DHT22;20809;49.594;8.734;2022-09-09T15:47:57;17.60;99.90
34574;DHT22;20809;49.594;8.734;2022-09-09T15:51:02;17.20;99.90
34574;DHT22;20809;49.594;8.734;2022-09-09T15:54:04;16.80;99.90
34574;DHT22;20809;49.594;8.734;2022-09-09T15:57:07;16.60;99.90
34574;DHT22;20809;49.594;8.734;2022-09-09T16:00:08;16.30;99.90
34574;DHT22;20809;49.594;8.734;2022-09-09T16:03:09;16.20;99.90
34574;DHT22;20809;49.594;8.734;2022-09-09T16:06:20;16.10;99.90
34574;DHT22;20809;49.594;8.734;2022-09-09T16:09:21;15.90;99.90
34574;DHT22;20809;49.594;8.734;2022-09-09T16:12:22;15.80;99.90
34574;DHT22;20809;49.594;8.734;2022-09-09T16:15:23;15.50;99.90
34574;DHT22;20809;49.594;8.734;2022-09-09T16:18:24;15.40;99.90
34574;DHT22;20809;49.594;8.734;2022-09-09T16:21:31;15.30;99.90
34574;DHT22;20809;49.594;8.734;2022-09-09T16:24:32;15.30;99.90
34574;DHT22;20809;49.594;8.734;2022-09-09T16:27:33;15.20;99.90
34574;DHT22;20809;49.594;8.734;2022-09-09T16:30:36;15.30;99.90
34574;DHT22;20809;49.594;8.734;2022-09-09T16:33:40;15.40;99.90
34574;DHT22;20809;49.594;8.734;2022-09-09T16:36:42;15.60;99.90
34574;DHT22;20809;49.594;8.734;2022-09-09T16:39:43;15.60;99.90
34574;DHT22;20809;49.594;8.734;2022-09-09T16:42:44;15.60;99.90
34574;DHT22;20809;49.594;8.734;2022-09-09T16:45:45;15.70;99.90
34574;DHT22;20809;49.594;8.734;2022-09-09T16:48:47;15.70;99.90
34574;DHT22;20809;49.594;8.734;2022-09-09T16:51:49;15.70;99.90
34574;DHT22;20809;49.594;8.734;2022-09-09T16:54:53;15.60;99.90
34574;DHT22;20809;49.594;8.734;2022-09-09T16:57:54;15.60;99.90
34574;DHT22;20809;49.594;8.734;2022-09-09T17:00:58;15.60;99.90
34574;DHT22;20809;49.594;8.734;2022-09-09T17:04:02;15.50;99.90
34574;DHT22;20809;49.594;8.734;2022-09-09T17:07:02;15.40;99.90
34574;DHT22;20809;49.594;8.734;2022-09-09T17:10:04;15.30;99.90
34574;DHT22;20809;49.594;8.734;2022-09-09T17:13:05;15.30;99.90
34574;DHT22;20809;49.594;8.734;2022-09-09T17:16:06;15.30;99.90
34574;DHT22;20809;49.594;8.734;2022-09-09T17:19:09;15.30;99.90
34574;DHT22;20809;49.594;8.734;2022-09-09T17:22:10;15.20;99.90
34574;DHT22;20809;49.594;8.734;2022-09-09T17:25:11;15.20;99.90
34574;DHT22;20809;49.594;8.734;2022-09-09T17:28:12;15.10;99.90
34574;DHT22;20809;49.594;8.734;2022-09-09T17:31:16;15.00;99.90
34574;DHT22;20809;49.594;8.734;2022-09-09T17:34:17;14.90;99.90
34574;DHT22;20809;49.594;8.734;2022-09-09T17:37:18;14.80;99.90
34574;DHT22;20809;49.594;8.734;2022-09-09T17:40:18;14.90;99.90
34574;DHT22;20809;49.594;8.734;2022-09-09T17:43:20;14.90;99.90
34574;DHT22;20809;49.594;8.734;2022-09-09T17:46:27;14.90;99.90
34574;DHT22;20809;49.594;8.734;2022-09-09T17:49:28;14.80;99.90
34574;DHT22;20809;49.594;8.734;2022-09-09T17:52:28;14.80;99.90
34574;DHT22;20809;49.594;8.734;2022-09-09T17:55:32;14.70;99.90
34574;DHT22;20809;49.594;8.734;2022-09-09T17:58:36;14.70;99.90
34574;DHT22;20809;49.594;8.734;2022-09-09T18:01:38;14.60;99.90
34574;DHT22;20809;49.594;8.734;2022-09-09T18:04:39;14.60;99.90
34574;DHT22;20809;49.594;8.734;2022-09-09T18:07:42;14.60;99.90
34574;DHT22;20809;49.594;8.734;2022-09-09T18:10:51;14.70;99.90
34574;DHT22;20809;49.594;8.734;2022-09-09T18:13:58;14.70;99.90
34574;DHT22;20809;49.594;8.734;2022-09-09T18:17:02;14.70;99.90
34574;DHT22;20809;49.594;8.734;2022-09-09T18:20:03;14.70;99.90
34574;DHT22;20809;49.594;8.734;2022-09-09T18:23:04;14.70;99.90
34574;DHT22;20809;49.594;8.734;2022-09-09T18:26:14;14.70;99.90
34574;DHT22;20809;49.594;8.734;2022-09-09T18:29:18;14.70;99.90
34574;DHT22;20809;49.594;8.734;2022-09-09T18:32:24;14.70;99.90
34574;DHT22;20809;49.594;8.734;2022-09-09T18:35:24;14.70;99.90
34574;DHT22;20809;49.594;8.734;2022-09-09T18:38:25;14.60;99.90
34574;DHT22;20809;49.594;8.734;2022-09-09T18:41:28;14.60;99.90
34574;DHT22;20809;49.594;8.734;2022-09-09T18:44:31;14.50;99.90
34574;DHT22;20809;49.594;8.734;2022-09-09T18:47:32;14.40;99.90
34574;DHT22;20809;49.594;8.734;2022-09-09T18:50:34;14.30;99.90
34574;DHT22;20809;49.594;8.734;2022-09-09T18:53:35;14.30;99.90
34574;DHT22;20809;49.594;8.734;2022-09-09T18:56:36;14.30;99.90
34574;DHT22;20809;49.594;8.734;2022-09-09T18:59:37;14.30;99.90
34574;DHT22;20809;49.594;8.734;2022-09-09T19:02:38;14.20;99.90
34574;DHT22;20809;49.594;8.734;2022-09-09T19:05:41;14.30;99.90
34574;DHT22;20809;49.594;8.734;2022-09-09T19:08:43;14.20;99.90
34574;DHT22;20809;49.594;8.734;2022-09-09T19:11:44;14.20;99.90
34574;DHT22;20809;49.594;8.734;2022-09-09T19:14:45;14.10;99.90
34574;DHT22;20809;49.594;8.734;2022-09-09T19:17:47;14.10;99.90
34574;DHT22;20809;49.594;8.734;2022-09-09T19:20:47;14.10;99.90
34574;DHT22;20809;49.594;8.734;2022-09-09T19:23:59;14.00;99.90
34574;DHT22;20809;49.594;8.734;2022-09-09T19:27:02;13.90;99.90
34574;DHT22;20809;49.594;8.734;2022-09-09T19:30:05;13.80;99.90
34574;DHT22;20809;49.594;8.734;2022-09-09T19:33:06;13.80;99.90
34574;DHT22;20809;49.594;8.734;2022-09-09T19:36:08;13.70;99.90
34574;DHT22;20809;49.594;8.734;2022-09-09T19:39:10;13.80;99.90
34574;DHT22;20809;49.594;8.734;2022-09-09T19:42:10;13.80;99.90
34574;DHT22;20809;49.594;8.734;2022-09-09T19:45:11;13.80;99.90
34574;DHT22;20809;49.594;8.734;2022-09-09T19:48:12;13.90;99.90
34574;DHT22;20809;49.594;8.734;2022-09-09T19:51:16;13.80;99.90
34574;DHT22;20809;49.594;8.734;2022-09-09T19:54:19;13.80;99.90
34574;DHT22;20809;49.594;8.734;2022-09-09T19:57:20;13.80;99.90
34574;DHT22;20809;49.594;8.734;2022-09-09T20:00:22;13.80;99.90
34574;DHT22;20809;49.594;8.734;2022-09-09T20:03:23;13.80;99.90
34574;DHT22;20809;49.594;8.734;2022-09-09T20:06:26;13.90;99.90
34574;DHT22;20809;49.594;8.734;2022-09-09T20:09:28;13.90;99.90
34574;DHT22;20809;49.594;8.734;2022-09-09T20:12:29;13.90;99.90
34574;DHT22;20809;49.594;8.734;2022-09-09T20:15:30;13.90;99.90
34574;DHT22;20809;49.594;8.734;2022-09-09T20:18:33;14.00;99.90
34574;DHT22;20809;49.594;8.734;2022-09-09T20:21:40;13.90;99.90
34574;DHT22;20809;49.594;8.734;2022-09-09T20:24:41;13.80;99.90
34574;DHT22;20809;49.594;8.734;2022-09-09T20:27:43;13.80;99.90
34574;DHT22;20809;49.594;8.734;2022-09-09T20:30:44;13.80;99.90
34574;DHT22;20809;49.594;8.734;2022-09-09T20:33:46;13.80;99.90
34574;DHT22;20809;49.594;8.734;2022-09-09T20:36:47;13.80;99.90
34574;DHT22;20809;49.594;8.734;2022-09-09T20:39:54;13.90;99.90
34574;DHT22;20809;49.594;8.734;2022-09-09T20:42:55;13.80;99.90
34574;DHT22;20809;49.594;8.734;2022-09-09T20:46:01;13.80;99.90
34574;DHT22;20809;49.594;8.734;2022-09-09T20:49:03;13.90;99.90
34574;DHT22;20809;49.594;8.734;2022-09-09T20:52:04;13.90;99.90
34574;DHT22;20809;49.594;8.734;2022-09-09T20:55:06;13.90;99.90
34574;DHT22;20809;49.594;8.734;2022-09-09T20:58:08;13.90;99.90
34574;DHT22;20809;49.594;8.734;2022-09-09T21:01:15;13.90;99.90
34574;DHT22;20809;49.594;8.734;2022-09-09T21:04:18;13.80;99.90
34574;DHT22;20809;49.594;8.734;2022-09-09T21:07:19;13.80;99.90